Pagina principale
METAR-TAF:

METAR-TAF

Aeroporti :

Aeroporto di Vladivostok

Vladivostok, Russia

latitudine: 43-07N, longitudine: 131-56E, altezza: 184 m

Osservazione

Il bollettino è stato emesso 37 minuti fa, alle 21:00 UTC
Vento 4 kt da nord/nord-est
Temperature 5°C
Umidità 100%
Pressione 1020 hPa
Visibilità 10 km o più

METAR: UHWW 202100Z 03002MPS 9999 NSC 05/05 Q1020 R25L/0///70 NOSIG RMK QFE764

Ora: 07:37 (21:37 UTC)

Previsione

Il bollettino è stato emesso 1 ora e 42 minuti fa, alle 19:55 UTC
Previsione valida dal 20 alle 21 UTC al 21 alle 21 UTC
Vento 6 kt da nord-est
Visibilità: 5000 m
Nubi sparse ad un'altezza di 2000 ft
foschia
A partire da 20 alle 2300 UTC
Vento 6 kt da sud/sud-ovest
Visibilità 10 km o più
Nubi sparse ad un'altezza di 3000 ft

TAF: UHWW 201955Z 2021/2121 05003MPS 5000 BR SCT020 FM202300 20003MPS 9999 SCT030

Osservazioni e previsioni meteorologiche di più di 4000 aeroporti (messaggi METAR e TAF).

Le stazioni disponibili sono rappresentate dai dischi gialli e rossi sulla carta.

Puntare il mouse per vedere il nome della stazione.

Clicca sopra per visualizzare le osservazioni e previsioni meteorologiche.

Per cambiare la mappa : fare clic sui pulsanti verdi con una croce nera per ingrandire, il pulsante verde con un trattino per diminuire, o sulla freccia verde per le mappe adiacenti.


METAR-TAF: